Rechercher aéroport 
image banner adimage banner adimage banner ad
image banner ad

CN27 - Hughes/Canoga Park

Situé à Canoga Park, United States

ICAO - CN27, IATA -

Données fournies par Airmate  

Information générale

Coordonnées: N34°13'17" W118°37'38"
Élévation : 845 feet MSL.
Variation magnétique : 14° East
Voir autres Aéroports à California

Données opérationnelles

Special qualification required
Heure actuelle UTC:
Heure actuelle locale:
Météo à : KVNY - Van Nuys ( 13 km )
METAR: KVNY 291951Z 14009KT 10SM CLR 35/13 A2988 RMK AO2 SLP108 T03500133
TAF: KVNY 291736Z 2918/3018 VRB03KT P6SM SKC FM291900 14008KT P6SM SKC FM300000 29006KT P6SM SKC FM300700 VRB03KT P6SM SKC
Voir NOTAMs / SUP AIP / TFR affectant cet aéroport [VIEW]
Fréquences de communication: [VIEW]

Pistes:

Coordonnées de l'aéroport

Adresse: Canoga Park United States

Vue satellite de CN27